Time;durP1;ratioP1;P1;durP2;ratioP2;P2;SDS_P1;SDS_P2;PMS_P1;PMS_P2;Temp;Humidity;BMP_temperature;BMP_pressure;BME280_temperature;BME280_humidity;BME280_pressure;Samples;Min_cycle;Max_cycle;Signal;HPM_P1;HPM_P2
2021/10/13 00:00:23;;;;;;;58.75;35.48;;;;;;;11.47;73.46;100350.42;1775497;80;21548;-74
2021/10/13 00:02:50;;;;;;;60.58;32.67;;;;;;;11.44;73.26;100349.30;1775241;80;20904;-75
2021/10/13 00:05:17;;;;;;;62.00;35.98;;;;;;;11.39;72.95;100348.30;1775162;80;21089;-75
2021/10/13 00:07:45;;;;;;;69.42;37.88;;;;;;;11.31;72.90;100344.03;1775081;80;21397;-74
2021/10/13 00:10:11;;;;;;;58.45;31.77;;;;;;;11.24;72.74;100338.84;1775090;80;21124;-74
2021/10/13 00:12:38;;;;;;;62.58;33.78;;;;;;;11.13;72.94;100332.98;1738327;82;20952;-75
2021/10/13 00:15:10;;;;;;;64.97;33.08;;;;;;;11.07;73.29;100333.87;1775220;80;20957;-75
2021/10/13 00:17:37;;;;;;;72.27;35.48;;;;;;;11.01;73.64;100324.64;1775410;80;20927;-76
2021/10/13 00:20:06;;;;;;;69.10;35.13;;;;;;;10.96;73.68;100326.27;1775183;80;20928;-76
2021/10/13 00:22:33;;;;;;;73.75;30.85;;;;;;;10.93;73.44;100326.44;1775352;80;21800;-76
2021/10/13 00:24:59;;;;;;;59.13;29.77;;;;;;;10.91;73.31;100327.02;1738084;82;20849;-76
2021/10/13 00:27:26;;;;;;;51.55;30.52;;;;;;;10.88;73.42;100319.84;1775584;80;20884;-76
2021/10/13 00:29:53;;;;;;;64.35;37.53;;;;;;;10.83;73.61;100316.20;1775292;80;20892;-75
2021/10/13 00:32:20;;;;;;;72.03;36.63;;;;;;;10.77;73.75;100317.91;1775376;80;20971;-76
2021/10/13 00:34:47;;;;;;;59.75;32.45;;;;;;;10.73;73.81;100317.74;1738081;82;21966;-76
2021/10/13 00:37:13;;;;;;;56.35;30.17;;;;;;;10.64;73.99;100321.80;1777659;80;20929;-77
2021/10/13 00:39:40;;;;;;;44.95;29.18;;;;;;;10.56;73.97;100317.07;1745963;82;20872;-77
2021/10/13 00:42:07;;;;;;;52.88;29.95;;;;;;;10.49;74.20;100313.62;1783731;80;20872;-77
2021/10/13 00:44:34;;;;;;;52.65;30.45;;;;;;;10.44;74.40;100320.95;1783501;79;20970;-77
2021/10/13 00:47:00;;;;;;;52.67;30.60;;;;;;;10.40;74.16;100321.60;1745957;82;21416;-77
2021/10/13 00:49:27;;;;;;;55.10;31.73;;;;;;;10.37;73.90;100320.02;1783313;79;20899;-77
2021/10/13 00:51:54;;;;;;;52.55;30.72;;;;;;;10.35;73.92;100328.45;1746274;82;20991;-77
2021/10/13 00:54:24;;;;;;;53.00;29.92;;;;;;;10.33;73.86;100327.70;1783758;80;20927;-77
2021/10/13 00:56:51;;;;;;;49.05;29.60;;;;;;;10.30;73.88;100327.91;1783258;80;20904;-77
2021/10/13 00:59:18;;;;;;;44.55;28.05;;;;;;;10.27;74.00;100327.22;1783297;79;21099;-77
2021/10/13 01:02:02;;;;;;;42.70;25.50;;;;;;;10.23;74.03;100331.83;1783673;80;20864;-77
2021/10/13 01:05:16;;;;;;;50.50;26.35;;;;;;;10.17;73.97;100329.59;1758313;80;20883;-76
2021/10/13 01:08:16;;;;;;;42.33;24.75;;;;;;;10.06;73.68;100316.33;1745740;82;20963;-76
2021/10/13 01:11:13;;;;;;;45.00;25.82;;;;;;;9.91;73.91;100313.71;1783881;80;20959;-75
2021/10/13 01:13:56;;;;;;;49.80;26.17;;;;;;;9.80;74.35;100305.68;1782903;80;21528;-76
2021/10/13 01:16:34;;;;;;;45.40;25.40;;;;;;;9.73;74.96;100305.22;1745865;82;20936;-75
2021/10/13 01:19:04;;;;;;;38.53;25.05;;;;;;;9.72;75.86;100314.50;1783426;80;20872;-75
2021/10/13 01:21:50;;;;;;;43.45;25.50;;;;;;;9.78;76.22;100308.86;1783758;80;20872;-75
2021/10/13 01:24:34;;;;;;;54.38;29.40;;;;;;;9.86;76.07;100310.55;1783462;80;20920;-76
2021/10/13 01:27:38;;;;;;;57.07;29.37;;;;;;;9.92;75.92;100296.24;1783883;80;21490;-77
2021/10/13 01:30:06;;;;;;;54.58;31.17;;;;;;;9.94;75.67;100299.13;1783386;79;20915;-76
2021/10/13 01:32:36;;;;;;;55.60;30.37;;;;;;;9.93;75.30;100297.91;1717028;82;20991;-77
2021/10/13 01:35:04;;;;;;;50.40;29.45;;;;;;;9.89;75.03;100293.35;1783383;79;21489;-76
2021/10/13 01:37:46;;;;;;;45.40;27.82;;;;;;;9.84;74.89;100296.70;1783385;80;20887;-77
2021/10/13 01:40:14;;;;;;;51.20;28.50;;;;;;;9.78;74.75;100289.70;1746196;82;21469;-77
2021/10/13 01:42:45;;;;;;;67.75;33.90;;;;;;;9.70;74.66;100288.39;1783432;79;21432;-76
2021/10/13 01:45:12;;;;;;;84.37;44.88;;;;;;;9.66;74.56;100291.30;1783459;79;21298;-77
2021/10/13 01:47:39;;;;;;;96.67;49.65;;;;;;;9.62;74.45;100295.88;1753214;80;20836;-76
2021/10/13 01:52:03;;;;;;;83.22;46.88;;;;;;;9.62;74.34;100293.25;1816248;78;22655;-76
2021/10/13 01:54:30;;;;;;;72.87;40.05;;;;;;;9.54;74.38;100298.14;1789450;80;21357;-76
2021/10/13 01:56:59;;;;;;;69.27;38.08;;;;;;;9.51;74.34;100291.28;1789356;79;21131;-76
2021/10/13 01:59:25;;;;;;;61.15;32.60;;;;;;;;;;1789330;80;21416;-76
2021/10/13 02:01:52;;;;;;;46.35;27.67;;;;;;;9.42;74.27;100302.80;1789287;80;20848;-77
2021/10/13 02:04:19;;;;;;;46.75;27.30;;;;;;;9.33;74.14;100307.63;1759139;80;20923;-75
2021/10/13 02:06:48;;;;;;;35.15;25.37;;;;;;;;;;1789502;80;20916;-76
2021/10/13 02:09:16;;;;;;;36.90;23.60;;;;;;;9.19;74.51;100295.86;1789337;80;21751;-75
2021/10/13 02:11:43;;;;;;;37.03;25.08;;;;;;;9.08;74.65;100287.80;1789520;80;20923;-75
2021/10/13 02:14:11;;;;;;;35.40;23.95;;;;;;;8.98;75.01;100286.65;1789339;80;20880;-74
2021/10/13 02:16:40;;;;;;;39.60;22.52;;;;;;;8.92;75.33;100286.56;1789683;80;20948;-76
2021/10/13 02:19:08;;;;;;;38.28;24.65;;;;;;;8.85;75.63;100283.94;1789552;80;20896;-74
2021/10/13 02:21:37;;;;;;;48.98;31.77;;;;;;;8.78;75.98;100277.36;1789540;79;21104;-75
2021/10/13 02:24:05;;;;;;;38.08;24.60;;;;;;;8.77;76.51;100274.37;1789313;80;20927;-75
2021/10/13 02:26:45;;;;;;;40.10;23.65;;;;;;;8.81;76.68;100279.81;1789780;80;21396;-76
2021/10/13 02:29:15;;;;;;;45.23;24.72;;;;;;;8.81;76.74;100283.26;1787747;80;20912;-76
2021/10/13 02:31:42;;;;;;;43.45;25.85;;;;;;;8.84;76.66;100289.61;1789733;80;20923;-76
2021/10/13 02:34:09;;;;;;;43.15;26.33;;;;;;;8.87;76.53;100298.60;1789275;80;21148;-75
2021/10/13 02:36:36;;;;;;;39.40;24.92;;;;;;;8.88;76.42;100298.13;1789384;79;20887;-75
2021/10/13 02:39:04;;;;;;;32.78;22.93;;;;;;;8.85;76.24;100296.53;1789398;80;20841;-76
2021/10/13 02:41:31;;;;;;;39.38;23.95;;;;;;;8.83;76.13;100291.02;1789364;80;21473;-76
2021/10/13 02:43:58;;;;;;;52.43;28.92;;;;;;;8.79;75.84;100289.52;1789432;80;20982;-75
2021/10/13 02:46:45;;;;;;;45.08;26.12;;;;;;;8.74;75.83;100292.84;1789377;80;21809;-76
2021/10/13 02:49:39;;;;;;;47.33;27.00;;;;;;;8.73;75.79;100293.31;1789359;80;20896;-77
2021/10/13 02:52:23;;;;;;;53.92;26.55;;;;;;;8.72;75.62;100291.64;1784189;80;20960;-76
2021/10/13 02:55:22;;;;;;;50.17;27.65;;;;;;;8.72;75.30;100286.41;1783957;80;21358;-76
2021/10/13 02:58:22;;;;;;;45.60;27.75;;;;;;;8.67;74.93;100287.98;1783413;80;20947;-76
2021/10/13 03:00:51;;;;;;;45.67;24.67;;;;;;;8.64;74.87;100279.47;1784074;80;21160;-76
2021/10/13 03:03:36;;;;;;;42.00;25.72;;;;;;;8.58;74.92;100288.52;1783353;80;20920;-76
2021/10/13 03:06:04;;;;;;;48.30;27.48;;;;;;;8.52;75.07;100279.71;1783537;80;20900;-76
2021/10/13 03:08:35;;;;;;;42.08;26.12;;;;;;;8.47;75.09;100285.20;1783436;80;20861;-75
2021/10/13 03:11:02;;;;;;;37.23;23.85;;;;;;;8.46;75.17;100281.36;1783477;80;20888;-76
2021/10/13 03:13:32;;;;;;;41.77;23.55;;;;;;;8.44;75.07;100275.38;1783602;80;21528;-76
2021/10/13 03:16:01;;;;;;;44.03;27.30;;;;;;;8.43;74.94;100276.31;1783710;80;21069;-75
2021/10/13 03:18:28;;;;;;;49.23;27.62;;;;;;;8.41;75.04;100270.34;1783842;80;20916;-76
2021/10/13 03:20:55;;;;;;;43.25;26.65;;;;;;;8.38;75.14;100263.92;1752755;80;21672;-77
2021/10/13 03:23:22;;;;;;;42.05;26.15;;;;;;;8.30;75.00;100256.06;1783786;80;20865;-75
2021/10/13 03:25:51;;;;;;;38.33;25.05;;;;;;;8.20;74.97;100254.88;1783513;80;21083;-76
2021/10/13 03:28:17;;;;;;;43.68;25.12;;;;;;;8.11;75.32;100259.31;1783979;80;20980;-75
2021/10/13 03:30:45;;;;;;;42.88;25.45;;;;;;;8.09;75.85;100263.34;1783498;80;20975;-76
2021/10/13 03:33:12;;;;;;;47.30;25.02;;;;;;;8.07;76.26;100261.28;1784028;80;20896;-77
2021/10/13 03:35:39;;;;;;;42.33;23.95;;;;;;;8.07;76.34;100263.89;1783473;80;20905;-75
2021/10/13 03:38:06;;;;;;;43.92;25.20;;;;;;;8.09;76.32;100265.09;1783699;80;22158;-75
2021/10/13 03:40:34;;;;;;;47.27;25.10;;;;;;;8.11;76.07;100254.09;1783388;80;20928;-76
2021/10/13 03:43:01;;;;;;;54.88;27.90;;;;;;;8.11;75.97;100255.41;1783775;80;20991;-77
2021/10/13 03:45:28;;;;;;;42.65;26.80;;;;;;;8.09;75.98;100256.81;1783582;80;20959;-76
2021/10/13 03:47:55;;;;;;;47.98;26.97;;;;;;;8.08;75.87;100255.58;1783979;80;20959;-76
2021/10/13 03:50:22;;;;;;;47.73;26.17;;;;;;;8.05;75.73;100257.91;1782800;80;21800;-75
2021/10/13 03:52:50;;;;;;;42.80;24.25;;;;;;;8.04;75.55;100260.59;1775376;80;20885;-77
2021/10/13 03:55:18;;;;;;;48.83;27.87;;;;;;;8.00;75.40;100250.77;1775032;80;20920;-77
2021/10/13 03:57:46;;;;;;;39.78;24.23;;;;;;;7.95;75.53;100252.80;1753136;80;20897;-78
2021/10/13 04:00:17;;;;;;;39.70;24.82;;;;;;;7.91;75.79;100247.36;1775305;80;20873;-77
2021/10/13 04:02:45;;;;;;;38.73;24.15;;;;;;;7.86;75.68;100231.13;1775283;80;21138;-77
2021/10/13 04:05:12;;;;;;;42.83;23.38;;;;;;;7.80;75.81;100220.57;1775078;80;20936;-78
2021/10/13 04:07:40;;;;;;;42.40;25.43;;;;;;;7.76;76.03;100223.40;1775104;80;21421;-77
2021/10/13 04:10:15;;;;;;;42.27;25.23;;;;;;;7.75;76.31;100229.56;1775207;80;21056;-76
2021/10/13 04:12:47;;;;;;;38.50;25.60;;;;;;;7.79;76.37;100211.51;1775110;80;20940;-79
2021/10/13 04:15:14;;;;;;;52.35;27.90;;;;;;;7.82;76.34;100216.08;1775298;80;21170;-77
2021/10/13 04:17:41;;;;;;;51.40;26.62;;;;;;;7.85;76.08;100219.01;1775418;80;20858;-77
2021/10/13 04:20:11;;;;;;;40.78;26.73;;;;;;;7.86;75.88;100228.03;1775055;80;20928;-79
2021/10/13 04:22:40;;;;;;;46.80;27.42;;;;;;;7.85;75.73;100223.76;1775048;80;21007;-79
2021/10/13 04:25:08;;;;;;;52.73;30.52;;;;;;;7.86;75.81;100228.03;1775272;80;21382;-79
2021/10/13 04:27:35;;;;;;;44.80;25.35;;;;;;;7.87;76.03;100236.73;1775238;80;21110;-79
2021/10/13 04:30:05;;;;;;;165.40;76.60;;;;;;;7.92;76.18;100250.84;1775203;80;20884;-83
2021/10/13 04:32:31;;;;;;;71.12;37.80;;;;;;;7.95;76.16;100258.49;1775328;80;20896;-80
2021/10/13 04:34:58;;;;;;;60.05;35.50;;;;;;;7.99;76.05;100262.16;1775458;80;20944;-83
2021/10/13 04:37:25;;;;;;;68.47;35.08;;;;;;;8.04;76.07;100248.84;1775574;80;21484;-87
2021/10/13 04:39:52;;;;;;;57.08;33.90;;;;;;;8.09;75.84;100240.28;1775451;80;21118;-83
2021/10/13 04:42:19;;;;;;;66.85;35.73;;;;;;;8.13;76.08;100235.73;1775002;80;20952;-85
2021/10/13 04:44:58;;;;;;;67.42;35.63;;;;;;;8.17;76.41;100238.56;1775501;80;20944;-86
2021/10/13 04:47:31;;;;;;;65.78;36.30;;;;;;;8.24;76.72;100230.28;1758160;80;20975;-83
2021/10/13 04:49:57;;;;;;;64.60;32.75;;;;;;;8.40;76.69;100238.55;1775640;80;20925;-82
2021/10/13 04:52:24;;;;;;;66.60;33.55;;;;;;;8.50;76.96;100230.61;1775085;80;21191;-83
2021/10/13 04:54:51;;;;;;;53.60;31.25;;;;;;;8.62;76.97;100225.96;1774674;80;20881;-84
2021/10/13 04:57:18;;;;;;;53.68;30.17;;;;;;;8.72;76.85;100226.28;1774559;80;20999;-82
2021/10/13 04:59:45;;;;;;;50.78;30.20;;;;;;;8.82;76.88;100216.11;1775052;80;21521;-83
2021/10/13 05:02:12;;;;;;;65.95;37.28;;;;;;;8.93;76.76;100220.23;1775226;80;21061;-82
2021/10/13 05:04:39;;;;;;;52.48;29.55;;;;;;;9.02;76.69;100229.31;1775268;80;21787;-82
2021/10/13 05:07:07;;;;;;;65.72;40.00;;;;;;;9.12;77.46;100219.52;1775119;80;20948;-82
2021/10/13 05:12:10;;;;;;;75.35;35.30;;;;;;;9.33;77.32;100222.59;1741055;82;20885;-84
2021/10/13 05:14:37;;;;;;;94.75;37.65;;;;;;;9.49;77.15;100222.95;1708350;84;21004;-86
2021/10/13 05:17:05;;;;;;;87.30;39.95;;;;;;;9.65;77.06;100228.08;1744179;82;21812;-85
2021/10/13 05:19:31;;;;;;;71.28;42.88;;;;;;;9.82;76.74;100224.41;1708340;84;20960;-76
2021/10/13 05:21:58;;;;;;;74.20;49.00;;;;;;;9.93;76.95;100222.78;1744335;82;20967;-81
2021/10/13 05:24:25;;;;;;;76.60;47.03;;;;;;;10.08;77.20;100226.69;1709875;84;20961;-81
2021/10/13 05:26:52;;;;;;;66.85;44.70;;;;;;;10.23;77.40;100230.94;1747039;82;20999;-86
2021/10/13 05:29:19;;;;;;;67.20;43.28;;;;;;;10.37;77.42;100230.06;1710620;84;21097;-86
2021/10/13 05:31:46;;;;;;;62.88;41.85;;;;;;;10.50;77.38;100220.45;1745348;82;20975;-86
2021/10/13 05:34:13;;;;;;;60.45;43.63;;;;;;;10.65;77.26;100209.87;1708196;84;20945;-85
2021/10/13 05:36:41;;;;;;;65.15;42.33;;;;;;;10.79;77.20;100210.64;1744334;82;20913;-83
2021/10/13 05:39:07;;;;;;;65.87;42.62;;;;;;;10.99;77.06;100213.22;1708615;84;20976;-84
2021/10/13 05:41:34;;;;;;;64.07;45.90;;;;;;;11.17;76.72;100216.84;1744070;82;21090;-84
2021/10/13 05:44:04;;;;;;;66.17;44.55;;;;;;;11.35;76.39;100208.16;1708137;83;21619;-83
2021/10/13 05:46:31;;;;;;;66.82;48.70;;;;;;;11.57;75.86;100216.69;1744003;82;21000;-82
2021/10/13 05:48:58;;;;;;;72.17;48.33;;;;;;;11.74;75.22;100215.02;1708506;83;20996;-82
2021/10/13 05:51:25;;;;;;;71.80;49.35;;;;;;;11.98;74.81;100207.20;1744373;82;20940;-82
2021/10/13 05:53:52;;;;;;;67.62;43.92;;;;;;;12.30;74.25;100205.31;1708046;84;21123;-82
2021/10/13 05:56:19;;;;;;;65.37;42.20;;;;;;;12.73;73.36;100203.40;1744041;82;20900;-83
2021/10/13 05:58:47;;;;;;;57.95;41.20;;;;;;;13.22;72.20;100202.75;1708156;84;21577;-86
2021/10/13 06:01:18;;;;;;;53.80;39.75;;;;;;;13.71;70.74;100208.62;1743855;82;20959;-86
2021/10/13 06:03:43;;;;;;;53.58;40.28;;;;;;;14.20;69.21;100206.80;1707493;84;20972;-80
2021/10/13 06:06:10;;;;;;;58.63;41.88;;;;;;;14.64;67.41;100202.80;1744570;82;21084;-78
2021/10/13 06:08:37;;;;;;;66.17;40.90;;;;;;;15.06;66.10;100209.38;1708125;84;20992;-75
2021/10/13 06:11:04;;;;;;;54.90;37.88;;;;;;;15.70;63.34;100197.67;1743845;82;20933;-80
2021/10/13 06:13:31;;;;;;;53.15;37.53;;;;;;;15.70;63.34;100197.67;1708451;83;20920;-76
2021/10/13 06:15:58;;;;;;;52.73;38.13;;;;;;;15.89;62.06;100188.95;1767004;80;20979;-76
2021/10/13 06:18:25;;;;;;;55.83;38.78;;;;;;;15.93;61.17;100179.78;1775436;80;21504;-77
2021/10/13 06:20:53;;;;;;;54.20;39.27;;;;;;;15.94;61.08;100178.80;1775113;80;21397;-77
2021/10/13 06:23:19;;;;;;;52.40;37.90;;;;;;;15.94;60.86;100178.33;1775049;80;20987;-75
2021/10/13 06:25:46;;;;;;;53.40;38.78;;;;;;;15.88;60.60;100176.23;1775027;80;20984;-75
2021/10/13 06:28:13;;;;;;;53.35;40.43;;;;;;;15.82;60.71;100177.27;1775408;80;20872;-75
2021/10/13 06:30:42;;;;;;;50.20;37.67;;;;;;;15.74;60.79;100182.75;1774957;80;21146;-75
2021/10/13 06:33:09;;;;;;;54.80;37.48;;;;;;;15.64;60.82;100183.67;1775433;80;20993;-74
2021/10/13 06:35:36;;;;;;;51.58;38.70;;;;;;;15.51;60.96;100190.52;1775122;80;20963;-74
2021/10/13 06:38:03;;;;;;;45.48;37.90;;;;;;;15.39;61.20;100187.14;1775454;80;20987;-74
2021/10/13 06:40:30;;;;;;;53.63;37.10;;;;;;;15.31;61.79;100183.83;1775300;80;21457;-75
2021/10/13 06:42:58;;;;;;;46.28;33.60;;;;;;;15.30;61.85;100183.98;1775503;80;22117;-73
2021/10/13 06:45:25;;;;;;;42.62;31.48;;;;;;;15.25;61.75;100184.85;1775088;80;20912;-74
2021/10/13 06:47:52;;;;;;;43.90;30.25;;;;;;;15.19;61.84;100189.36;1775331;80;20908;-73
2021/10/13 06:50:19;;;;;;;36.33;29.60;;;;;;;15.17;62.05;100179.41;1775199;80;21019;-73
2021/10/13 06:52:45;;;;;;;41.90;30.35;;;;;;;15.20;62.18;100179.14;1775073;80;21542;-74
2021/10/13 06:55:13;;;;;;;36.55;28.87;;;;;;;15.22;62.21;100172.75;1775174;80;21504;-72
2021/10/13 06:57:40;;;;;;;41.48;28.02;;;;;;;15.31;62.02;100170.62;1775313;80;20888;-73
2021/10/13 07:00:09;;;;;;;45.63;29.60;;;;;;;15.31;61.72;100164.02;1775350;80;21011;-73
2021/10/13 07:02:36;;;;;;;45.73;29.63;;;;;;;15.28;61.83;100163.47;1775516;80;21513;-72
2021/10/13 07:05:04;;;;;;;40.63;29.05;;;;;;;15.24;62.00;100154.96;1775257;80;20987;-73
2021/10/13 07:07:31;;;;;;;42.98;28.95;;;;;;;15.21;62.13;100158.38;1775196;80;21111;-73
2021/10/13 07:09:58;;;;;;;38.42;27.27;;;;;;;15.18;62.22;100147.56;1775214;80;20968;-74
2021/10/13 07:12:25;;;;;;;39.70;28.70;;;;;;;15.20;62.82;100135.06;1775228;80;20935;-75
2021/10/13 07:14:52;;;;;;;36.68;27.90;;;;;;;15.20;62.82;100135.06;1775137;80;20892;-74
2021/10/13 07:17:19;;;;;;;45.67;31.77;;;;;;;15.30;62.50;100136.44;1775241;80;20928;-73
2021/10/13 07:19:46;;;;;;;39.98;29.45;;;;;;;15.42;62.25;100135.34;1775452;80;21769;-73
2021/10/13 07:22:13;;;;;;;44.88;28.50;;;;;;;15.62;62.05;100132.74;1775184;80;20881;-74
2021/10/13 07:24:40;;;;;;;44.50;29.35;;;;;;;15.81;61.41;100115.63;1775469;80;20853;-74
2021/10/13 07:27:07;;;;;;;39.03;28.25;;;;;;;15.94;60.94;100112.22;1775084;80;20900;-74
2021/10/13 07:29:41;;;;;;;40.73;28.32;;;;;;;16.05;60.51;100114.36;1775636;80;20920;-74
2021/10/13 07:32:03;;;;;;;41.40;30.35;;;;;;;16.08;60.18;100113.60;1774332;80;21148;-74
2021/10/13 07:34:30;;;;;;;41.08;29.32;;;;;;;16.09;60.01;100124.52;1775373;80;20964;-73
2021/10/13 07:36:57;;;;;;;38.83;28.15;;;;;;;16.06;60.01;100131.41;1775250;80;20959;-74
2021/10/13 07:39:24;;;;;;;37.93;28.62;;;;;;;16.02;60.00;100130.02;1775249;80;20983;-74
2021/10/13 07:41:51;;;;;;;43.25;31.62;;;;;;;15.98;60.14;100129.95;1775233;80;20884;-75
2021/10/13 07:44:17;;;;;;;39.78;29.35;;;;;;;15.93;60.36;100126.89;1775570;80;21751;-74
2021/10/13 07:46:44;;;;;;;40.28;30.40;;;;;;;15.87;60.58;100128.27;1775446;80;20908;-74
2021/10/13 07:49:11;;;;;;;39.33;28.80;;;;;;;15.81;60.67;100135.45;1775261;80;20915;-74
2021/10/13 07:51:38;;;;;;;37.00;28.47;;;;;;;15.72;60.71;100133.64;1775092;80;21469;-75
2021/10/13 07:54:06;;;;;;;39.27;28.73;;;;;;;15.64;60.98;100126.84;1775340;80;20929;-75
2021/10/13 07:56:32;;;;;;;42.67;28.87;;;;;;;15.55;61.27;100103.38;1775223;80;21321;-79
2021/10/13 07:58:59;;;;;;;37.53;25.08;;;;;;;15.42;61.62;100119.98;1775140;80;20913;-77
2021/10/13 08:01:26;;;;;;;36.17;27.02;;;;;;;15.33;61.98;100101.80;1775314;80;21536;-75
2021/10/13 08:03:54;;;;;;;41.33;27.15;;;;;;;15.29;62.39;100113.61;1775139;80;20967;-75
2021/10/13 08:06:21;;;;;;;41.23;28.95;;;;;;;15.27;62.90;100111.59;1775280;80;21074;-76
2021/10/13 08:08:48;;;;;;;43.17;27.82;;;;;;;15.30;63.24;100117.45;1775270;80;21821;-75
2021/10/13 08:11:17;;;;;;;35.63;26.48;;;;;;;15.39;63.25;100124.22;1774958;80;20936;-76
2021/10/13 08:13:48;;;;;;;36.03;26.25;;;;;;;15.45;63.12;100130.27;1775172;80;21426;-76
2021/10/13 08:16:15;;;;;;;40.88;27.30;;;;;;;15.47;63.29;100130.50;1775246;80;21443;-75
2021/10/13 08:18:42;;;;;;;37.03;29.30;;;;;;;15.45;63.61;100137.73;1775243;80;21398;-77
2021/10/13 08:21:11;;;;;;;45.28;30.08;;;;;;;15.45;63.61;100137.73;1775468;80;21066;-77
2021/10/13 08:23:39;;;;;;;34.95;26.45;;;;;;;15.43;63.86;100145.41;1775247;80;20995;-78
2021/10/13 08:26:06;;;;;;;37.25;25.77;;;;;;;15.42;63.76;100143.76;1775454;80;21007;-77
2021/10/13 08:28:33;;;;;;;36.35;26.48;;;;;;;15.40;63.89;100154.45;1775048;80;21003;-77
2021/10/13 08:31:00;;;;;;;36.20;27.17;;;;;;;15.38;64.38;100143.67;1775282;80;20905;-78
2021/10/13 08:33:27;;;;;;;35.85;26.27;;;;;;;15.50;64.66;100150.53;1775189;80;22147;-78
2021/10/13 08:35:54;;;;;;;38.17;26.00;;;;;;;15.70;64.73;100148.27;1774763;80;20849;-78
2021/10/13 08:38:21;;;;;;;39.30;26.65;;;;;;;16.07;65.11;100134.89;1775139;80;20971;-78
2021/10/13 08:40:47;;;;;;;39.75;25.75;;;;;;;16.60;64.03;100135.73;1775430;80;20976;-79
2021/10/13 08:43:16;;;;;;;38.33;24.80;;;;;;;17.11;62.32;100133.16;1775150;80;21478;-77
2021/10/13 08:45:43;;;;;;;38.33;24.70;;;;;;;17.46;60.59;100124.13;1775119;80;21216;-78
2021/10/13 08:48:10;;;;;;;33.55;24.30;;;;;;;17.66;59.57;100122.19;1775120;80;20893;-79
2021/10/13 08:50:38;;;;;;;34.25;25.62;;;;;;;17.83;58.70;100124.06;1775541;80;20995;-78
2021/10/13 08:53:10;;;;;;;33.65;23.98;;;;;;;18.14;58.43;100130.28;1774806;80;21497;-78
2021/10/13 08:55:38;;;;;;;32.70;25.32;;;;;;;18.42;57.47;100116.41;1775542;80;21373;-77
2021/10/13 08:58:15;;;;;;;33.08;24.18;;;;;;;18.51;56.34;100088.09;1775121;80;21132;-78
2021/10/13 09:00:44;;;;;;;28.75;22.67;;;;;;;18.56;56.15;100097.23;1774693;80;20857;-79
2021/10/13 09:03:28;;;;;;;36.17;25.32;;;;;;;18.69;56.43;100090.17;1775423;80;20880;-81
2021/10/13 09:05:57;;;;;;;34.48;23.95;;;;;;;19.07;55.62;100088.56;1775560;80;20884;-79
2021/10/13 09:08:26;;;;;;;35.13;24.20;;;;;;;19.47;54.36;100083.86;1775505;80;20869;-79
2021/10/13 09:10:54;;;;;;;32.23;24.15;;;;;;;19.75;53.65;100083.11;1775496;80;21144;-82
2021/10/13 09:13:21;;;;;;;29.55;24.75;;;;;;;19.84;53.00;100071.47;1775376;80;20889;-81
2021/10/13 09:15:51;;;;;;;37.75;25.12;;;;;;;19.86;52.79;100076.14;1775252;80;20964;-80
2021/10/13 09:18:22;;;;;;;30.90;23.95;;;;;;;19.95;53.10;100071.65;1775107;80;21023;-78
2021/10/13 09:20:51;;;;;;;33.95;23.87;;;;;;;20.06;52.35;100074.48;1775468;80;21441;-81
2021/10/13 09:23:30;;;;;;;34.33;23.77;;;;;;;20.14;52.43;100069.12;1775216;80;21401;-81
2021/10/13 09:26:09;;;;;;;38.28;23.10;;;;;;;20.33;51.95;100061.80;1774816;80;20939;-78
2021/10/13 09:28:36;;;;;;;30.92;21.07;;;;;;;20.52;51.61;100056.59;1775385;80;20964;-79
2021/10/13 09:31:20;;;;;;;30.43;21.73;;;;;;;20.60;51.16;100049.44;1775306;80;21390;-80
2021/10/13 09:33:56;;;;;;;32.90;21.03;;;;;;;20.65;51.09;100044.45;1775364;80;21499;-81
2021/10/13 09:36:23;;;;;;;30.85;19.57;;;;;;;20.82;51.14;100039.05;1775324;80;21071;-80
2021/10/13 09:38:50;;;;;;;32.08;20.12;;;;;;;20.96;50.04;100037.48;1752693;80;20967;-81
2021/10/13 09:41:17;;;;;;;24.63;19.30;;;;;;;20.96;50.23;100034.81;1775313;80;20932;-81
2021/10/13 09:43:45;;;;;;;25.48;19.75;;;;;;;21.07;50.16;100042.42;1775176;80;20865;-81
2021/10/13 09:46:14;;;;;;;30.82;20.90;;;;;;;21.11;49.73;100044.56;1775485;80;20885;-79
2021/10/13 09:48:46;;;;;;;26.27;20.57;;;;;;;20.99;49.80;100043.81;1775286;80;21130;-78
2021/10/13 09:51:22;;;;;;;33.18;21.52;;;;;;;20.89;50.24;100039.50;1773726;80;21326;-79
2021/10/13 09:53:53;;;;;;;30.57;21.02;;;;;;;21.02;50.22;100046.94;1781129;80;20904;-78
2021/10/13 09:56:32;;;;;;;27.52;20.50;;;;;;;21.18;49.83;100054.53;1783397;80;21476;-77
2021/10/13 09:59:16;;;;;;;29.05;21.05;;;;;;;21.32;49.97;100052.44;1783429;80;21476;-78
2021/10/13 10:01:55;;;;;;;22.70;19.07;;;;;;;21.62;49.43;100036.11;1783709;80;21154;-77
2021/10/13 10:04:26;;;;;;;22.77;19.77;;;;;;;21.80;48.72;100033.64;1782451;80;20845;-77
2021/10/13 10:06:58;;;;;;;27.62;19.60;;;;;;;21.91;48.63;100030.03;1783576;80;20884;-79
2021/10/13 10:09:28;;;;;;;30.70;20.17;;;;;;;22.03;48.30;100041.61;1783633;80;20939;-78
2021/10/13 10:12:08;;;;;;;27.85;19.80;;;;;;;21.99;48.25;100041.64;1783755;80;21359;-77
2021/10/13 10:14:40;;;;;;;25.20;19.67;;;;;;;21.90;48.35;100044.91;1783808;80;21079;-77
2021/10/13 10:17:09;;;;;;;25.90;18.12;;;;;;;21.78;48.67;100043.15;1783478;80;21373;-77
2021/10/13 10:19:43;;;;;;;24.37;17.65;;;;;;;21.70;49.01;100039.23;1783477;80;21195;-77
2021/10/13 10:22:18;;;;;;;20.68;17.15;;;;;;;21.63;48.99;100036.45;1783535;80;20896;-77
2021/10/13 10:24:53;;;;;;;22.65;17.25;;;;;;;21.55;48.90;100027.67;1783808;80;20919;-74
2021/10/13 10:27:31;;;;;;;23.65;16.27;;;;;;;21.51;48.94;100023.18;1783723;80;21081;-74
2021/10/13 10:30:17;;;;;;;26.00;16.52;;;;;;;21.48;49.01;100024.88;1753018;80;20982;-76
2021/10/13 10:33:04;;;;;;;20.72;17.37;;;;;;;21.46;48.96;100022.89;1783703;80;20848;-76
2021/10/13 10:35:42;;;;;;;22.60;16.65;;;;;;;21.38;49.13;100030.41;1783866;80;20853;-74
2021/10/13 10:38:10;;;;;;;22.82;16.97;;;;;;;21.24;48.89;100022.66;1783526;80;20991;-75
2021/10/13 10:40:38;;;;;;;25.57;17.77;;;;;;;21.07;49.20;100014.42;1783748;80;21740;-76
2021/10/13 10:43:24;;;;;;;21.80;15.65;;;;;;;20.91;49.37;99998.02;1783789;80;20915;-77
2021/10/13 10:45:56;;;;;;;30.23;16.82;;;;;;;20.78;49.64;99999.91;1782879;80;20983;-77
2021/10/13 10:48:27;;;;;;;26.35;17.60;;;;;;;20.61;49.82;99999.64;1783897;80;21393;-75
2021/10/13 10:50:58;;;;;;;28.07;17.95;;;;;;;20.42;49.92;99992.86;1772457;80;20857;-76
2021/10/13 10:53:39;;;;;;;25.95;17.48;;;;;;;20.25;50.24;99988.08;1779968;80;21158;-75
2021/10/13 10:56:25;;;;;;;24.25;17.60;;;;;;;20.12;50.60;99969.99;1775378;80;20884;-76
2021/10/13 10:59:03;;;;;;;24.05;17.07;;;;;;;19.98;50.92;99942.72;1775211;80;20944;-76
2021/10/13 11:01:32;;;;;;;20.40;15.93;;;;;;;19.92;51.47;99940.73;1775217;80;20932;-76
2021/10/13 11:04:09;;;;;;;22.52;16.90;;;;;;;19.88;51.92;99938.93;1775374;80;20900;-77
2021/10/13 11:06:36;;;;;;;21.45;16.35;;;;;;;19.90;51.97;99918.78;1754813;80;21779;-77
2021/10/13 11:09:12;;;;;;;24.60;16.42;;;;;;;19.95;52.06;99917.80;1775191;80;21362;-75
2021/10/13 11:11:45;;;;;;;20.97;15.78;;;;;;;19.97;51.87;99925.93;1775519;80;20936;-75
2021/10/13 11:14:26;;;;;;;21.42;17.05;;;;;;;20.02;51.54;99934.22;1775264;80;20904;-78
2021/10/13 11:16:58;;;;;;;21.87;15.78;;;;;;;20.02;51.27;99939.55;1773199;80;21449;-76
2021/10/13 11:19:33;;;;;;;20.70;16.07;;;;;;;20.00;51.26;99956.69;1775246;80;21150;-76
2021/10/13 11:22:10;;;;;;;28.00;17.15;;;;;;;19.95;51.66;99960.38;1775404;80;21362;-76
2021/10/13 11:24:39;;;;;;;20.43;15.25;;;;;;;19.92;51.67;99948.72;1775112;80;20940;-76
2021/10/13 11:27:06;;;;;;;18.02;15.53;;;;;;;19.90;51.68;99944.06;1775294;80;21007;-78
2021/10/13 11:29:35;;;;;;;20.52;15.95;;;;;;;19.86;52.08;99955.05;1775099;80;20893;-77
2021/10/13 11:32:14;;;;;;;20.48;15.50;;;;;;;19.83;51.89;99965.19;1775134;80;22044;-76